Time;durP1;ratioP1;P1;durP2;ratioP2;P2;SDS_P1;SDS_P2;PMS_P1;PMS_P2;Temp;Humidity;BMP_temperature;BMP_pressure;BME280_temperature;BME280_humidity;BME280_pressure;Samples;Min_cycle;Max_cycle;Signal;HPM_P1;HPM_P2
2023/05/26 00:00:58;;;;;;;12.48;7.65;;;;;;;11.32;100.00;94481.25;5048101;28;20047;-63
2023/05/26 00:03:28;;;;;;;12.90;7.97;;;;;;;11.31;100.00;94489.91;5047657;28;20118;-60
2023/05/26 00:05:55;;;;;;;15.40;8.75;;;;;;;11.28;100.00;94485.22;5048134;28;20040;-63
2023/05/26 00:08:22;;;;;;;15.32;9.15;;;;;;;11.21;100.00;94483.31;5050966;28;20082;-58
2023/05/26 00:10:49;;;;;;;14.13;8.73;;;;;;;11.17;100.00;94482.59;5051537;28;20045;-58
2023/05/26 00:13:16;;;;;;;13.55;8.18;;;;;;;11.14;100.00;94480.63;5054213;28;20049;-59
2023/05/26 00:15:43;;;;;;;12.60;8.23;;;;;;;11.14;100.00;94483.38;5079937;28;20107;-59
2023/05/26 00:18:10;;;;;;;13.68;8.30;;;;;;;11.10;100.00;94471.63;5062037;28;20048;-59
2023/05/26 00:20:39;;;;;;;16.27;8.80;;;;;;;11.10;100.00;94474.38;5062255;28;20054;-61
2023/05/26 00:23:06;;;;;;;15.83;8.53;;;;;;;11.03;100.00;94475.22;5080127;28;20028;-63
2023/05/26 00:25:33;;;;;;;15.60;8.70;;;;;;;11.03;100.00;94475.22;5082588;28;20560;-60
2023/05/26 00:28:00;;;;;;;16.73;9.57;;;;;;;10.95;100.00;94471.75;5065950;28;20062;-58
2023/05/26 00:30:26;;;;;;;16.05;9.02;;;;;;;10.92;100.00;94475.28;5080281;28;20048;-58
2023/05/26 00:32:53;;;;;;;14.85;8.93;;;;;;;10.88;100.00;94469.06;5061996;28;20055;-61
2023/05/26 00:35:20;;;;;;;15.67;8.97;;;;;;;10.82;100.00;94470.66;5080679;28;20041;-59
2023/05/26 00:37:46;;;;;;;16.38;9.20;;;;;;;10.81;100.00;94473.84;5060013;28;20050;-62
2023/05/26 00:40:13;;;;;;;16.83;8.85;;;;;;;10.66;100.00;94468.41;5061797;28;20040;-59
2023/05/26 00:42:40;;;;;;;15.77;8.63;;;;;;;10.63;100.00;94472.00;5058472;28;20041;-58
2023/05/26 00:45:07;;;;;;;14.48;7.70;;;;;;;10.59;100.00;94469.25;5059137;28;20051;-59
2023/05/26 00:47:34;;;;;;;14.53;8.00;;;;;;;10.57;100.00;94466.13;5058035;28;20747;-59
2023/05/26 00:50:02;;;;;;;14.25;7.85;;;;;;;10.55;100.00;94474.00;5059314;28;20094;-59
2023/05/26 00:52:32;;;;;;;31.67;18.83;;;;;;;10.54;100.00;94466.97;5061762;28;20067;-66
2023/05/26 00:54:59;;;;;;;22.13;13.00;;;;;;;10.47;100.00;94471.69;5062833;28;20048;-59
2023/05/26 00:57:28;;;;;;;19.27;10.70;;;;;;;10.46;100.00;94462.66;5059619;28;20404;-63
2023/05/26 00:59:56;;;;;;;15.23;8.67;;;;;;;10.43;100.00;94468.97;5059008;28;20045;-58
2023/05/26 01:02:22;;;;;;;15.00;9.05;;;;;;;10.37;100.00;94471.34;5060549;28;20482;-59
2023/05/26 01:04:55;;;;;;;14.82;8.50;;;;;;;10.33;100.00;94462.34;5062389;28;20044;-59
2023/05/26 01:07:23;;;;;;;16.00;8.63;;;;;;;10.26;100.00;94467.06;5060174;28;20048;-59
2023/05/26 01:09:50;;;;;;;15.55;9.00;;;;;;;10.20;100.00;94461.22;5058738;28;20033;-63
2023/05/26 01:12:28;;;;;;;15.13;8.73;;;;;;;10.18;100.00;94455.34;5059938;28;20661;-61
2023/05/26 01:15:04;;;;;;;15.95;8.68;;;;;;;10.04;100.00;94466.38;5077859;28;20361;-59
2023/05/26 01:17:49;;;;;;;20.83;11.75;;;;;;;9.86;100.00;94456.28;5078152;28;20046;-67
2023/05/26 01:20:39;;;;;;;25.92;13.70;;;;;;;9.93;100.00;94456.25;5079750;28;20047;-58
2023/05/26 01:23:19;;;;;;;16.17;9.20;;;;;;;9.91;100.00;94458.59;5082742;28;20032;-63
2023/05/26 01:26:16;;;;;;;14.63;8.13;;;;;;;9.91;100.00;94458.59;5081271;28;20128;-63
2023/05/26 01:28:44;;;;;;;13.77;8.10;;;;;;;9.88;100.00;94464.91;5062991;28;20036;-59
2023/05/26 01:31:12;;;;;;;15.98;8.60;;;;;;;9.92;100.00;94465.66;5081366;28;20070;-59
2023/05/26 01:33:38;;;;;;;15.65;8.57;;;;;;;9.88;100.00;94464.91;5078120;28;20044;-59
2023/05/26 01:36:05;;;;;;;15.30;8.20;;;;;;;9.83;100.00;94465.31;5078724;28;20048;-60
2023/05/26 01:38:32;;;;;;;14.97;8.50;;;;;;;9.84;100.00;94463.34;5081514;28;20101;-66
2023/05/26 01:41:06;;;;;;;15.82;9.40;;;;;;;9.80;100.00;94463.38;5081822;28;20043;-58
2023/05/26 01:43:44;;;;;;;14.70;8.57;;;;;;;9.80;100.00;94458.66;5077534;28;20063;-66
2023/05/26 01:46:25;;;;;;;14.85;8.50;;;;;;;9.78;100.00;94460.25;5076508;28;20145;-62
2023/05/26 01:48:55;;;;;;;14.23;8.57;;;;;;;9.78;100.00;94460.25;5050061;28;20047;-58
2023/05/26 01:51:23;;;;;;;16.13;8.43;;;;;;;9.60;100.00;94468.53;5049595;28;20075;-63
2023/05/26 01:53:55;;;;;;;15.38;9.02;;;;;;;9.57;100.00;94461.84;5049693;28;20469;-58
2023/05/26 01:56:25;;;;;;;14.50;7.85;;;;;;;9.57;100.00;94467.31;5049465;28;20067;-59
2023/05/26 01:58:53;;;;;;;15.10;8.05;;;;;;;9.46;100.00;94461.13;5049522;28;20056;-59
2023/05/26 02:01:24;;;;;;;15.23;8.35;;;;;;;9.45;100.00;94466.97;5049151;28;20047;-62
2023/05/26 02:03:50;;;;;;;13.93;8.13;;;;;;;9.44;100.00;94465.41;5028492;28;20045;-59
2023/05/26 02:06:18;;;;;;;15.05;8.23;;;;;;;9.43;100.00;94469.31;5031784;28;20071;-59
2023/05/26 02:08:44;;;;;;;14.40;8.13;;;;;;;9.42;100.00;94476.78;5049336;28;20047;-62
2023/05/26 02:11:11;;;;;;;14.13;8.30;;;;;;;9.24;100.00;94462.34;5049079;28;20048;-59
2023/05/26 02:13:38;;;;;;;15.57;8.40;;;;;;;9.00;100.00;94475.66;5038026;28;20054;-63
2023/05/26 02:16:05;;;;;;;13.80;8.00;;;;;;;9.19;100.00;94464.28;5064637;28;20051;-58
2023/05/26 02:18:31;;;;;;;13.23;7.75;;;;;;;9.26;100.00;94474.44;5069037;28;20085;-59
2023/05/26 02:20:58;;;;;;;17.67;8.20;;;;;;;9.28;100.00;94469.34;5064271;28;20048;-59
2023/05/26 02:23:26;;;;;;;13.73;8.18;;;;;;;9.30;100.00;94466.22;5066321;28;20500;-63
2023/05/26 02:25:52;;;;;;;15.30;9.48;;;;;;;9.29;100.00;94468.16;5077249;28;20169;-60
2023/05/26 02:28:20;;;;;;;15.20;9.27;;;;;;;9.28;100.00;94472.09;5078640;28;20036;-58
2023/05/26 02:30:46;;;;;;;16.75;9.63;;;;;;;9.28;100.00;94463.88;5066752;28;20044;-58
2023/05/26 02:33:13;;;;;;;16.33;9.18;;;;;;;9.24;100.00;94463.09;5077024;28;20430;-61
2023/05/26 02:35:40;;;;;;;16.98;9.18;;;;;;;9.19;100.00;94458.00;5077087;28;20050;-59
2023/05/26 02:38:07;;;;;;;17.05;9.90;;;;;;;9.17;100.00;94463.88;5077455;28;20058;-60
2023/05/26 02:40:33;;;;;;;16.37;9.13;;;;;;;9.20;100.00;94463.09;5076281;28;20708;-59
2023/05/26 02:43:00;;;;;;;18.98;10.10;;;;;;;9.23;100.00;94458.78;5076786;28;20531;-58
2023/05/26 02:45:27;;;;;;;17.85;9.90;;;;;;;9.24;100.00;94460.38;5079550;28;20526;-59
2023/05/26 02:47:54;;;;;;;18.02;10.02;;;;;;;9.21;100.00;94455.66;5064965;28;20044;-59
2023/05/26 02:50:22;;;;;;;21.08;10.20;;;;;;;9.23;100.00;94469.75;5047080;28;20051;-63
2023/05/26 02:52:48;;;;;;;29.87;15.87;;;;;;;9.21;100.00;94458.41;5041265;28;20048;-60
2023/05/26 02:55:15;;;;;;;18.80;11.00;;;;;;;9.16;100.00;94464.28;5056654;28;20503;-59
2023/05/26 02:57:42;;;;;;;15.02;8.55;;;;;;;9.01;100.00;94463.50;5056939;28;20075;-58
2023/05/26 03:00:12;;;;;;;14.48;8.57;;;;;;;8.87;100.00;94463.50;5056675;28;20040;-57
2023/05/26 03:02:39;;;;;;;13.30;8.10;;;;;;;8.78;100.00;94467.41;5060301;28;20037;-59
2023/05/26 03:05:07;;;;;;;14.60;8.77;;;;;;;8.80;100.00;94477.97;5060237;28;20040;-58
2023/05/26 03:07:34;;;;;;;16.67;8.95;;;;;;;8.80;100.00;94481.50;5067337;28;20749;-59
2023/05/26 03:10:01;;;;;;;16.15;9.10;;;;;;;8.73;100.00;94481.50;5067391;28;20074;-61
2023/05/26 03:12:27;;;;;;;15.40;8.90;;;;;;;8.82;100.00;94474.88;5067821;28;20485;-59
2023/05/26 03:14:54;;;;;;;17.58;9.68;;;;;;;8.75;100.00;94470.16;5065903;28;20039;-63
2023/05/26 03:17:21;;;;;;;18.30;9.30;;;;;;;8.74;100.00;94472.09;5088099;28;20096;-63
2023/05/26 03:19:48;;;;;;;17.55;9.50;;;;;;;8.70;100.00;94471.31;5088134;28;20100;-59
2023/05/26 03:22:15;;;;;;;14.82;9.40;;;;;;;8.67;100.00;94472.13;5088015;28;20056;-60
2023/05/26 03:25:02;;;;;;;17.95;9.88;;;;;;;8.66;100.00;94467.81;5088212;28;20035;-60
2023/05/26 03:27:29;;;;;;;17.70;9.93;;;;;;;8.72;100.00;94466.25;5088185;28;20056;-62
2023/05/26 03:29:55;;;;;;;17.37;9.90;;;;;;;8.70;100.00;94465.84;5088384;28;20298;-62
2023/05/26 03:32:22;;;;;;;17.85;9.80;;;;;;;8.70;100.00;94474.06;5087708;28;20055;-59
2023/05/26 03:34:49;;;;;;;18.67;10.15;;;;;;;8.74;100.00;94472.09;5088202;28;20047;-58
2023/05/26 03:37:16;;;;;;;17.02;9.57;;;;;;;8.79;100.00;94463.53;5087745;28;20048;-59
2023/05/26 03:39:42;;;;;;;15.85;9.35;;;;;;;8.76;100.00;94464.28;5087937;28;20032;-59
2023/05/26 03:42:10;;;;;;;15.87;9.03;;;;;;;8.77;100.00;94470.53;5065350;28;20058;-63
2023/05/26 03:44:36;;;;;;;16.05;9.27;;;;;;;8.84;100.00;94475.25;5068384;28;20044;-59
2023/05/26 03:47:03;;;;;;;20.40;10.20;;;;;;;8.87;100.00;94479.94;5057879;28;20072;-62
2023/05/26 03:49:30;;;;;;;18.65;9.90;;;;;;;8.93;100.00;94479.16;5046353;28;20051;-58
2023/05/26 03:51:56;;;;;;;17.48;9.80;;;;;;;9.00;100.00;94472.91;5047371;28;20051;-59
2023/05/26 03:54:23;;;;;;;17.50;9.53;;;;;;;8.76;100.00;94480.72;5046113;28;20125;-62
2023/05/26 03:56:50;;;;;;;16.48;9.57;;;;;;;8.82;100.00;94481.09;5046256;28;20041;-62
2023/05/26 03:59:17;;;;;;;17.45;10.23;;;;;;;8.89;100.00;94483.84;5047449;28;20045;-59
2023/05/26 04:01:43;;;;;;;17.00;10.02;;;;;;;9.08;100.00;94481.91;5047580;28;20074;-59
2023/05/26 04:04:10;;;;;;;17.00;9.45;;;;;;;9.08;100.00;94479.94;5047451;28;20043;-59
2023/05/26 04:06:38;;;;;;;18.83;9.97;;;;;;;9.14;100.00;94483.06;5047797;28;20044;-59
2023/05/26 04:09:05;;;;;;;22.35;9.90;;;;;;;8.98;100.00;94488.94;5047476;28;20045;-60
2023/05/26 04:11:32;;;;;;;19.73;9.93;;;;;;;9.00;100.00;94483.84;5047439;28;20045;-61
2023/05/26 04:13:58;;;;;;;19.15;10.23;;;;;;;9.14;100.00;94481.09;5055525;28;20396;-58
2023/05/26 04:16:25;;;;;;;16.90;9.98;;;;;;;9.29;100.00;94486.56;5067278;28;20101;-58
2023/05/26 04:18:52;;;;;;;17.90;9.83;;;;;;;9.50;100.00;94480.28;5067325;28;20044;-59
2023/05/26 04:21:19;;;;;;;15.20;8.93;;;;;;;9.57;100.00;94472.03;5067019;28;20248;-60
2023/05/26 04:23:51;;;;;;;18.10;9.85;;;;;;;9.44;100.00;94479.91;5067635;28;20047;-59
2023/05/26 04:26:18;;;;;;;18.88;10.52;;;;;;;9.64;100.00;94471.22;5067319;28;20048;-59
2023/05/26 04:28:45;;;;;;;16.13;9.60;;;;;;;9.84;100.00;94479.78;5067298;28;20044;-60
2023/05/26 04:31:16;;;;;;;18.70;9.80;;;;;;;9.96;100.00;94479.34;5067243;28;20207;-63
2023/05/26 04:33:45;;;;;;;15.55;9.80;;;;;;;10.01;100.00;94481.69;5067674;28;20148;-66
2023/05/26 04:36:13;;;;;;;18.83;10.43;;;;;;;9.85;100.00;94492.31;5067343;28;20707;-58
2023/05/26 04:38:45;;;;;;;16.58;9.90;;;;;;;10.08;100.00;94483.59;5067419;28;20048;-59
2023/05/26 04:41:12;;;;;;;16.58;10.15;;;;;;;10.19;100.00;94492.59;5067105;28;20057;-59
2023/05/26 04:43:40;;;;;;;17.40;9.80;;;;;;;10.32;100.00;94487.44;5084305;28;20597;-58
2023/05/26 04:46:10;;;;;;;16.40;9.45;;;;;;;10.39;100.00;94488.19;5057872;28;20040;-58
2023/05/26 04:48:38;;;;;;;17.42;9.95;;;;;;;10.51;100.00;94488.94;5063857;28;20855;-58
2023/05/26 04:51:07;;;;;;;16.85;9.98;;;;;;;10.55;100.00;94487.72;5052118;28;20049;-58
2023/05/26 04:53:34;;;;;;;18.95;9.88;;;;;;;10.65;100.00;94483.34;5048541;28;20385;-61
2023/05/26 04:56:02;;;;;;;19.33;10.43;;;;;;;10.53;100.00;94487.34;5050811;28;20105;-58
2023/05/26 04:58:31;;;;;;;18.13;9.88;;;;;;;10.71;100.00;94491.94;5050247;28;20105;-58
2023/05/26 05:01:02;;;;;;;16.38;9.35;;;;;;;10.57;100.00;94487.31;5054822;28;20044;-58
2023/05/26 05:03:33;;;;;;;16.33;10.10;;;;;;;11.07;100.00;94486.97;5052911;28;20105;-61
2023/05/26 05:06:01;;;;;;;18.30;10.02;;;;;;;11.04;100.00;94485.03;5065587;28;20045;-59
2023/05/26 05:08:27;;;;;;;17.20;9.97;;;;;;;11.32;100.00;94492.25;5060625;28;20033;-62
2023/05/26 05:10:54;;;;;;;17.48;10.27;;;;;;;11.41;100.00;94489.03;5049985;28;20528;-60
2023/05/26 05:13:21;;;;;;;18.35;9.88;;;;;;;11.11;100.00;94498.72;5055351;28;20055;-58
2023/05/26 05:15:48;;;;;;;17.77;9.75;;;;;;;11.13;100.00;94496.34;5072312;28;20374;-58
2023/05/26 05:18:15;;;;;;;16.88;9.85;;;;;;;11.31;100.00;94496.19;5089650;28;20048;-59
2023/05/26 05:20:41;;;;;;;16.03;9.90;;;;;;;11.25;100.00;94488.78;5090723;28;20052;-59
2023/05/26 05:23:08;;;;;;;17.42;9.60;;;;;;;11.32;100.00;94500.47;5090000;28;20040;-57
2023/05/26 05:25:35;;;;;;;15.32;8.88;;;;;;;11.67;100.00;94501.34;5090606;28;20036;-60
2023/05/26 05:28:02;;;;;;;14.82;8.73;;;;;;;13.34;100.00;94496.84;5090580;28;20036;-59
2023/05/26 05:30:29;;;;;;;17.08;8.95;;;;;;;15.53;100.00;94489.59;5090175;28;20054;-59
2023/05/26 05:32:55;;;;;;;14.97;8.83;;;;;;;16.51;100.00;94499.63;5090283;28;20048;-60
2023/05/26 05:35:22;;;;;;;13.52;8.50;;;;;;;16.81;99.46;94494.03;5089977;28;20047;-63
2023/05/26 05:37:50;;;;;;;14.23;9.18;;;;;;;16.07;100.00;94484.66;5090231;28;20042;-60
2023/05/26 05:40:16;;;;;;;15.15;8.90;;;;;;;16.44;100.00;94497.06;5089841;28;20043;-61
2023/05/26 05:42:43;;;;;;;13.73;9.20;;;;;;;16.97;97.31;94491.19;5089959;28;20387;-59
2023/05/26 05:45:11;;;;;;;13.80;9.23;;;;;;;17.06;93.10;94501.59;5089478;28;20052;-60
2023/05/26 05:47:38;;;;;;;15.00;9.05;;;;;;;18.58;84.33;94487.78;5076657;28;20052;-60
2023/05/26 05:50:05;;;;;;;13.98;9.20;;;;;;;18.14;85.94;94488.53;5069576;28;20032;-61
2023/05/26 05:52:34;;;;;;;13.18;8.57;;;;;;;18.34;84.47;94491.00;5068979;28;20756;-60
2023/05/26 05:55:01;;;;;;;15.00;9.40;;;;;;;16.37;95.89;94492.50;5069574;28;20060;-63
2023/05/26 05:57:28;;;;;;;13.53;9.80;;;;;;;17.43;87.63;94496.50;5049641;28;20052;-60
2023/05/26 05:59:55;;;;;;;13.93;8.85;;;;;;;18.18;86.79;94485.63;5048941;28;20067;-62
2023/05/26 06:02:21;;;;;;;12.20;8.98;;;;;;;19.09;76.82;94489.44;5030971;28;20515;-59
2023/05/26 06:04:48;;;;;;;13.23;8.60;;;;;;;18.74;78.19;94489.56;5031160;28;20102;-67
2023/05/26 06:07:15;;;;;;;13.15;9.02;;;;;;;19.46;77.02;94487.59;5049316;28;20090;-63
2023/05/26 06:09:41;;;;;;;11.67;8.20;;;;;;;21.63;65.31;94485.97;5050138;28;20047;-64
2023/05/26 06:12:08;;;;;;;12.45;8.95;;;;;;;19.49;72.49;94486.66;5048823;28;20874;-59
2023/05/26 06:14:38;;;;;;;13.35;8.40;;;;;;;20.56;69.02;94494.50;5076315;28;20044;-59
2023/05/26 06:17:04;;;;;;;14.15;8.80;;;;;;;20.54;71.24;94491.41;5089847;28;20040;-59
2023/05/26 06:19:31;;;;;;;12.02;8.50;;;;;;;20.77;65.01;94494.81;5089659;28;20365;-59
2023/05/26 06:21:58;;;;;;;13.33;8.63;;;;;;;19.33;72.69;94495.25;5089800;28;20040;-58
2023/05/26 06:24:25;;;;;;;13.15;8.90;;;;;;;19.09;72.31;94504.13;5089425;28;20043;-64
2023/05/26 06:26:52;;;;;;;12.30;9.07;;;;;;;19.11;75.73;94509.25;5089648;28;20469;-60
2023/05/26 06:29:19;;;;;;;14.20;9.30;;;;;;;19.21;80.56;94498.94;5089130;28;20036;-60
2023/05/26 06:31:45;;;;;;;12.43;8.93;;;;;;;20.70;67.89;94499.44;5089516;28;20039;-58
2023/05/26 06:34:12;;;;;;;15.60;9.47;;;;;;;19.16;73.93;94501.06;5088799;28;20036;-58
2023/05/26 06:36:39;;;;;;;13.05;8.57;;;;;;;22.40;62.24;94508.94;5089887;28;20051;-65
2023/05/26 06:39:06;;;;;;;11.50;8.50;;;;;;;20.24;70.54;94509.84;5089611;28;20042;-62
2023/05/26 06:41:33;;;;;;;12.60;9.23;;;;;;;20.28;74.26;94516.03;5089064;28;20038;-60
2023/05/26 06:44:00;;;;;;;12.95;9.07;;;;;;;20.54;71.07;94508.13;5089033;28;20047;-64
2023/05/26 06:46:26;;;;;;;11.47;8.83;;;;;;;21.48;66.50;94505.44;5085386;28;20064;-60
2023/05/26 06:48:53;;;;;;;11.38;7.70;;;;;;;22.89;63.17;94501.94;5051108;28;20460;-58
2023/05/26 06:51:20;;;;;;;12.35;8.70;;;;;;;20.83;68.41;94509.69;5050711;28;20044;-62
2023/05/26 06:53:47;;;;;;;12.57;9.02;;;;;;;20.11;68.29;94507.22;5068998;28;20041;-58
2023/05/26 06:56:13;;;;;;;13.50;8.88;;;;;;;20.13;72.35;94505.50;5068178;28;20067;-58
2023/05/26 06:58:40;;;;;;;12.53;8.50;;;;;;;22.78;60.82;94496.91;5068911;28;20047;-58
2023/05/26 07:01:08;;;;;;;10.73;8.27;;;;;;;23.55;56.56;94495.13;5068828;28;20039;-58
2023/05/26 07:03:34;;;;;;;11.13;8.32;;;;;;;23.73;54.96;94494.13;5067757;28;20623;-58
2023/05/26 07:06:02;;;;;;;12.68;8.98;;;;;;;23.51;53.66;94498.13;5050614;28;20066;-64
2023/05/26 07:08:29;;;;;;;12.48;9.07;;;;;;;21.79;59.02;94504.31;5068529;28;20044;-58
2023/05/26 07:10:56;;;;;;;11.50;8.30;;;;;;;22.91;57.54;94500.19;5050782;28;20508;-64
2023/05/26 07:13:23;;;;;;;12.02;9.32;;;;;;;20.90;62.83;94498.19;5071353;28;20392;-61
2023/05/26 07:15:50;;;;;;;11.40;8.50;;;;;;;20.60;67.71;94499.94;5088554;28;20042;-58
2023/05/26 07:18:16;;;;;;;14.75;8.55;;;;;;;23.50;56.60;94493.00;5088345;28;20043;-58
2023/05/26 07:20:43;;;;;;;12.23;8.32;;;;;;;24.67;52.44;94498.66;5088657;28;20059;-64
2023/05/26 07:23:12;;;;;;;11.53;8.80;;;;;;;23.55;56.11;94500.75;5087898;28;20275;-64
2023/05/26 07:25:39;;;;;;;13.82;8.88;;;;;;;23.71;54.46;94497.41;5088760;28;20050;-60
2023/05/26 07:28:06;;;;;;;12.45;9.45;;;;;;;21.27;60.41;94503.63;5088762;28;20039;-58
2023/05/26 07:30:33;;;;;;;12.40;9.10;;;;;;;23.91;55.96;94496.69;5088667;28;20044;-58
2023/05/26 07:32:59;;;;;;;12.80;9.25;;;;;;;20.81;62.15;94498.97;5088924;28;20046;-58
2023/05/26 07:35:26;;;;;;;12.53;9.57;;;;;;;20.46;65.36;94506.91;5088229;28;20072;-60
2023/05/26 07:37:53;;;;;;;13.27;9.27;;;;;;;21.91;61.75;94508.94;5088241;28;20036;-58
2023/05/26 07:40:20;;;;;;;12.82;9.40;;;;;;;21.35;62.80;94507.66;5087887;28;20040;-62
2023/05/26 07:42:46;;;;;;;13.50;9.32;;;;;;;22.58;60.63;94510.75;5070267;28;20112;-58
2023/05/26 07:45:13;;;;;;;13.88;9.32;;;;;;;22.46;59.91;94512.59;5087681;28;20139;-59
2023/05/26 07:47:40;;;;;;;12.77;9.00;;;;;;;23.49;57.95;94500.66;5074766;28;20470;-58
2023/05/26 07:50:07;;;;;;;11.73;8.98;;;;;;;23.99;56.05;94499.84;5068115;28;20077;-65
2023/05/26 07:52:35;;;;;;;13.70;7.88;;;;;;;27.94;46.74;94502.19;5067398;28;21455;-59
2023/05/26 07:55:01;;;;;;;13.48;9.50;;;;;;;20.75;63.24;94510.00;5068098;28;20055;-61
2023/05/26 07:57:28;;;;;;;11.23;7.65;;;;;;;26.18;53.19;94502.38;5067944;28;20053;-59
2023/05/26 07:59:56;;;;;;;12.63;9.13;;;;;;;22.49;58.21;94514.44;5068296;28;20090;-63
2023/05/26 08:02:23;;;;;;;12.95;9.20;;;;;;;22.12;61.01;94509.09;5067603;28;20044;-59
2023/05/26 08:04:50;;;;;;;12.30;8.80;;;;;;;22.39;59.83;94510.16;5068344;28;20052;-58
2023/05/26 08:07:17;;;;;;;14.98;9.52;;;;;;;23.51;58.71;94500.94;5067297;28;20044;-62
2023/05/26 08:09:45;;;;;;;11.50;8.40;;;;;;;26.21;49.04;94493.69;5068099;28;20045;-64
2023/05/26 08:12:13;;;;;;;12.47;9.03;;;;;;;24.33;55.58;94508.69;5067186;28;20051;-65
2023/05/26 08:14:40;;;;;;;11.85;7.57;;;;;;;26.08;51.69;94494.16;5054597;28;20485;-65
2023/05/26 08:17:07;;;;;;;12.90;8.18;;;;;;;26.01;49.45;94496.69;5047933;28;20373;-59
2023/05/26 08:19:33;;;;;;;10.50;7.80;;;;;;;28.07;43.63;94493.16;5047306;28;20045;-59
2023/05/26 08:22:00;;;;;;;10.60;8.00;;;;;;;28.03;41.17;94487.81;5047776;28;20037;-59
2023/05/26 08:24:27;;;;;;;12.63;8.30;;;;;;;23.17;53.46;94493.28;5047227;28;20053;-60
2023/05/26 08:26:53;;;;;;;14.35;8.45;;;;;;;24.23;53.39;94490.47;5030526;28;20033;-59
2023/05/26 08:29:22;;;;;;;10.93;7.32;;;;;;;27.23;46.01;94497.59;5050807;28;20478;-63
2023/05/26 08:31:50;;;;;;;10.07;7.15;;;;;;;27.09;45.67;94495.78;5059975;28;20044;-60
2023/05/26 08:34:17;;;;;;;9.85;6.55;;;;;;;27.64;45.07;94485.78;5067887;28;20517;-59
2023/05/26 08:36:46;;;;;;;9.73;6.90;;;;;;;27.67;42.75;94490.41;5051302;28;20342;-59
2023/05/26 08:39:13;;;;;;;10.65;6.88;;;;;;;24.63;46.92;94491.69;5050292;28;20496;-61
2023/05/26 08:41:48;;;;;;;13.48;6.93;;;;;;;28.99;39.29;94484.53;5050219;28;20044;-59
2023/05/26 08:44:16;;;;;;;9.75;6.28;;;;;;;28.15;39.79;94485.72;5049819;28;20110;-59
2023/05/26 08:46:55;;;;;;;7.72;4.97;;;;;;;32.72;30.69;94468.97;5056854;28;20045;-65
2023/05/26 08:49:23;;;;;;;7.73;4.90;;;;;;;34.78;27.55;94464.84;5070574;28;20063;-61
2023/05/26 08:52:06;;;;;;;6.97;4.80;;;;;;;35.09;25.41;94473.50;5071601;28;20036;-60
2023/05/26 08:54:33;;;;;;;7.15;5.00;;;;;;;32.01;27.79;94465.69;5070872;28;20478;-65
2023/05/26 08:57:02;;;;;;;7.82;4.90;;;;;;;32.83;26.36;94470.78;5071033;28;20357;-59
2023/05/26 08:59:31;;;;;;;9.05;5.22;;;;;;;30.55;29.94;94468.72;5070725;28;20059;-65
2023/05/26 09:01:58;;;;;;;8.57;5.60;;;;;;;29.31;31.80;94466.38;5071443;28;20039;-63
2023/05/26 09:04:30;;;;;;;9.13;5.38;;;;;;;28.81;32.51;94471.06;5070672;28;20036;-59
2023/05/26 09:06:57;;;;;;;7.78;5.38;;;;;;;27.06;34.71;94482.69;5071399;28;20109;-61
2023/05/26 09:09:45;;;;;;;8.10;5.55;;;;;;;24.42;37.84;94483.28;5065274;28;20587;-59
2023/05/26 09:12:12;;;;;;;9.43;5.25;;;;;;;28.27;33.86;94473.09;5058936;28;20051;-59
2023/05/26 09:14:40;;;;;;;10.63;5.80;;;;;;;26.23;35.88;94473.50;5076487;28;20043;-63
2023/05/26 09:17:11;;;;;;;10.10;5.20;;;;;;;31.20;30.47;94463.94;5082440;28;20112;-59
2023/05/26 09:19:38;;;;;;;8.82;5.20;;;;;;;30.98;29.34;94470.72;5081921;28;20062;-61
2023/05/26 09:22:10;;;;;;;8.02;5.00;;;;;;;28.65;31.44;94470.66;5052556;28;20059;-64
2023/05/26 09:24:48;;;;;;;7.88;5.45;;;;;;;27.18;34.02;94470.16;5069709;28;20128;-60
2023/05/26 09:27:24;;;;;;;9.30;5.60;;;;;;;28.30;33.02;94471.28;5070196;28;20226;-62
2023/05/26 09:29:54;;;;;;;8.88;5.10;;;;;;;29.17;31.77;94473.91;5070822;28;20039;-60
2023/05/26 09:32:25;;;;;;;6.65;4.80;;;;;;;29.99;30.22;94470.13;5069920;28;20072;-62
2023/05/26 09:34:55;;;;;;;8.40;5.20;;;;;;;31.17;28.56;94479.22;5070639;28;20040;-59
2023/05/26 09:37:28;;;;;;;7.60;4.90;;;;;;;30.81;28.92;94473.78;5069777;28;20036;-59
2023/05/26 09:40:05;;;;;;;7.07;5.07;;;;;;;30.35;29.69;94469.25;5069950;28;20036;-60
2023/05/26 09:42:32;;;;;;;7.15;5.15;;;;;;;30.32;29.05;94462.56;5069595;28;20409;-60
2023/05/26 09:45:01;;;;;;;8.20;4.63;;;;;;;33.32;26.35;94458.06;5070296;28;20040;-60
2023/05/26 09:47:33;;;;;;;7.35;5.25;;;;;;;33.26;25.71;94468.81;5057495;28;20452;-60
2023/05/26 09:50:05;;;;;;;9.18;5.10;;;;;;;31.33;27.54;94473.78;5050344;28;20055;-60
2023/05/26 09:52:33;;;;;;;7.30;5.20;;;;;;;32.73;26.27;94469.72;5049771;28;20045;-60
2023/05/26 09:55:00;;;;;;;7.07;5.13;;;;;;;34.93;24.04;94464.13;5050198;28;20113;-64
2023/05/26 09:57:28;;;;;;;10.05;4.70;;;;;;;29.36;29.17;94471.97;5049626;28;20052;-59
2023/05/26 10:00:01;;;;;;;9.30;5.45;;;;;;;25.54;35.24;94476.44;5049785;28;20037;-59
2023/05/26 10:02:28;;;;;;;9.20;5.55;;;;;;;27.13;33.94;94479.38;5048988;28;20045;-60
2023/05/26 10:04:57;;;;;;;7.43;5.53;;;;;;;26.25;35.15;94468.91;5049661;28;20067;-62
2023/05/26 10:07:26;;;;;;;9.63;5.28;;;;;;;26.77;34.26;94467.81;5031026;28;20039;-63
2023/05/26 10:10:02;;;;;;;6.88;5.30;;;;;;;25.63;36.26;94477.00;5049707;28;20047;-59
2023/05/26 10:12:33;;;;;;;7.95;5.57;;;;;;;25.56;36.50;94485.16;5049177;28;20427;-59
2023/05/26 10:15:02;;;;;;;7.85;5.40;;;;;;;23.22;40.64;94472.97;5066387;28;20117;-59
2023/05/26 10:17:29;;;;;;;7.13;5.13;;;;;;;24.32;40.04;94476.28;5069159;28;20087;-59
2023/05/26 10:19:57;;;;;;;9.30;6.30;;;;;;;23.75;41.59;94474.78;5069580;28;20092;-60
2023/05/26 10:22:28;;;;;;;9.10;6.07;;;;;;;26.02;38.67;94472.91;5069694;28;20051;-61
2023/05/26 10:25:08;;;;;;;8.38;5.30;;;;;;;28.41;35.66;94459.16;5081284;28;20043;-66
2023/05/26 10:27:47;;;;;;;10.15;6.80;;;;;;;24.99;39.95;94467.81;5080440;28;20036;-62
2023/05/26 10:30:16;;;;;;;7.20;5.17;;;;;;;27.97;36.25;94456.03;5079845;28;20068;-59
2023/05/26 10:32:46;;;;;;;6.82;5.05;;;;;;;29.38;33.04;94458.09;5077834;28;20036;-59
2023/05/26 10:35:27;;;;;;;9.75;5.25;;;;;;;30.22;31.55;94458.53;5077590;28;20056;-61
2023/05/26 10:38:00;;;;;;;7.93;4.88;;;;;;;30.61;30.61;94451.66;5080946;28;20036;-59
2023/05/26 10:40:30;;;;;;;9.85;6.15;;;;;;;27.69;34.88;94459.63;5077340;28;20048;-59
2023/05/26 10:43:02;;;;;;;8.10;5.60;;;;;;;29.34;32.27;94459.66;5076986;28;20040;-65
2023/05/26 10:45:33;;;;;;;9.77;5.90;;;;;;;29.21;32.29;94448.97;5079602;28;20335;-59
2023/05/26 10:48:08;;;;;;;10.38;5.55;;;;;;;29.37;32.06;94450.88;5064184;28;20049;-59
2023/05/26 10:50:57;;;;;;;9.15;5.18;;;;;;;29.98;31.19;94445.97;5059053;28;20627;-65
2023/05/26 10:53:26;;;;;;;7.95;5.10;;;;;;;29.54;31.87;94442.25;5057807;28;20082;-58
2023/05/26 10:55:55;;;;;;;8.93;5.67;;;;;;;27.74;34.14;94446.81;5041850;28;20045;-65
2023/05/26 10:58:34;;;;;;;7.60;5.68;;;;;;;28.21;34.28;94434.88;5040124;28;20075;-58
2023/05/26 11:01:01;;;;;;;8.13;5.50;;;;;;;28.40;35.51;94437.88;5039182;28;20043;-58
2023/05/26 11:03:43;;;;;;;9.52;6.43;;;;;;;26.29;37.73;94446.16;5058219;28;20066;-58
2023/05/26 11:06:14;;;;;;;10.10;6.10;;;;;;;25.46;39.12;94454.41;5058793;28;20041;-61
2023/05/26 11:08:47;;;;;;;8.53;5.80;;;;;;;25.32;39.48;94438.47;5057041;28;20056;-58
2023/05/26 11:11:27;;;;;;;9.60;5.72;;;;;;;27.36;36.90;94432.25;5057215;28;20041;-59
2023/05/26 11:14:09;;;;;;;9.20;5.97;;;;;;;26.51;37.90;94443.41;5053350;28;20440;-58
2023/05/26 11:16:42;;;;;;;8.98;5.70;;;;;;;27.10;36.63;94426.88;5039366;28;20040;-58
2023/05/26 11:19:10;;;;;;;9.15;5.40;;;;;;;27.11;36.33;94428.41;5039287;28;20059;-57
2023/05/26 11:21:39;;;;;;;9.63;5.93;;;;;;;27.01;36.08;94433.53;5018874;28;20052;-58
2023/05/26 11:24:07;;;;;;;10.30;6.80;;;;;;;24.87;39.99;94440.88;5036757;28;20072;-59
2023/05/26 11:26:34;;;;;;;11.65;6.80;;;;;;;23.34;45.50;94435.47;5018721;28;21102;-58
2023/05/26 11:29:05;;;;;;;8.98;6.50;;;;;;;25.13;43.21;94426.81;5035692;28;20114;-58
2023/05/26 11:31:32;;;;;;;9.45;6.32;;;;;;;25.60;40.76;94421.81;5036278;28;20367;-58